PORTS® Data Listing: 8519483 Bergen Point West Reach, NY

CO-OPS RAW PORTS DATA

************************      PRELIMINARY DATA      ************************** 

     THIS RAW DATA HAS NOT BEEN SUBJECT TO THE NATIONAL OCEAN SERVICE'S        
     QUALITY CONTROL OR QUALITY ASSURANCE PROCEDURES AND DOES NOT MEET         
     THE CRITERIA AND STANDARDS OF OFFICIAL NATIONAL OCEAN SERVICE             
     DATA.  IT IS RELEASED FOR LIMITED PUBLIC USE AS PRELIMINARY DATA TO       
     BE USED ONLY WITH APPROPRIATE CAUTION.                                    

************************      PRELIMINARY DATA      ************************** 


       CD   -   Calendar date
       T    -   Time
       TZ   -   Timezone
       PW   -   Predicted water level (feet above MLLW)
       OW   -   Observed water level (feet above MLLW)
       WS   -   Wind speed (knots)
       WD   -   Wind direction (degrees true)
       WG   -   Wind gust (knots)
       AT   -   Air temperature (degrees farenheit)
       WT   -   Water temperature (degrees farenheit)
       AP   -   Air pressure (millibars)
       SA   -   Salinty (PSU - Practical Salinity Units)
       SG   -   Specific gravity
       RH   -   Relative humidity
       AG   -   Air gap (feet)
       VI   -   Visibility (nautical miles)

       ** NOTE **
       A variable that has its data fields filled with "9"s, indicates that
       data was not collected for that sample period.
       **********


STATION NAME: Bergen Point West Reach (8519483)
****************************************************************************************************
    CD       T    TZ    PW     OW    WS   WD   WG    AT    WT    AP    SA    SG     RH    AG   VI
****************************************************************************************************
2020/02/20 17:18 EST    4.16   3.78 -999 -999 -999  34.3  41.4 1029.4 -9.9 -9.999 -99.9 -99.99 -9.99
2020/02/20 17:24 EST    4.22   3.84 -999 -999 -999  34.2  41.4 1029.3 -9.9 -9.999 -99.9 -99.99 -9.99
2020/02/20 17:30 EST    4.27   3.90 -999 -999 -999  34.0  41.4 1029.2 -9.9 -9.999 -99.9 -99.99 -9.99
2020/02/20 17:36 EST    4.32   3.97 -999 -999 -999  34.0  41.4 1029.2 -9.9 -9.999 -99.9 -99.99 -9.99
2020/02/20 17:42 EST    4.37   4.03 -999 -999 -999  34.2  41.4 1029.2 -9.9 -9.999 -99.9 -99.99 -9.99
2020/02/20 17:48 EST    4.41   4.09 -999 -999 -999  34.2  41.4 1029.4 -9.9 -9.999 -99.9 -99.99 -9.99
2020/02/20 17:54 EST    4.44   4.14 -999 -999 -999  34.2  41.4 1029.4 -9.9 -9.999 -99.9 -99.99 -9.99
2020/02/20 18:00 EST    4.47   4.18 -999 -999 -999  34.0  41.4 1029.5 -9.9 -9.999 -99.9 -99.99 -9.99
2020/02/20 18:06 EST    4.49   4.25 -999 -999 -999  34.0  41.4 1029.6 -9.9 -9.999 -99.9 -99.99 -9.99
2020/02/20 18:12 EST    4.51   4.29 -999 -999 -999  34.0  41.4 1029.9 -9.9 -9.999 -99.9 -99.99 -9.99
2020/02/20 18:18 EST    4.52   4.33 -999 -999 -999  34.0  41.4 1029.9 -9.9 -9.999 -99.9 -99.99 -9.99
2020/02/20 18:24 EST    4.52   4.37 -999 -999 -999  34.2  41.4 1030.0 -9.9 -9.999 -99.9 -99.99 -9.99
2020/02/20 18:30 EST    4.52   4.38 -999 -999 -999  34.2  41.4 1030.0 -9.9 -9.999 -99.9 -99.99 -9.99
2020/02/20 18:36 EST    4.51   4.38 -999 -999 -999  33.8  41.2 1030.1 -9.9 -9.999 -99.9 -99.99 -9.99
2020/02/20 18:42 EST    4.49   4.39 -999 -999 -999  33.6  41.0 1030.3 -9.9 -9.999 -99.9 -99.99 -9.99
2020/02/20 18:48 EST    4.47   4.37 -999 -999 -999  33.6  41.0 1030.4 -9.9 -9.999 -99.9 -99.99 -9.99
2020/02/20 18:54 EST    4.44   4.35 -999 -999 -999  33.4  41.0 1030.4 -9.9 -9.999 -99.9 -99.99 -9.99
2020/02/20 19:00 EST    4.41   4.31 -999 -999 -999  33.6  41.0 1030.4 -9.9 -9.999 -99.9 -99.99 -9.99
2020/02/20 19:06 EST    4.37   4.30 -999 -999 -999  33.4  40.8 1030.6 -9.9 -9.999 -99.9 -99.99 -9.99
2020/02/20 19:12 EST    4.32   4.26 -999 -999 -999  33.4  40.8 1030.5 -9.9 -9.999 -99.9 -99.99 -9.99
2020/02/20 19:18 EST    4.27   4.20 -999 -999 -999  33.3  40.8 1030.4 -9.9 -9.999 -99.9 -99.99 -9.99
2020/02/20 19:24 EST    4.21   4.13 -999 -999 -999  33.3  40.8 1030.4 -9.9 -9.999 -99.9 -99.99 -9.99
2020/02/20 19:30 EST    4.14   4.06 -999 -999 -999  33.3  40.8 1030.5 -9.9 -9.999 -99.9 -99.99 -9.99
2020/02/20 19:36 EST    4.08   3.97 -999 -999 -999  32.9  40.8 1030.5 -9.9 -9.999 -99.9 -99.99 -9.99
2020/02/20 19:42 EST    4.00   3.89 -999 -999 -999  32.9  40.8 1030.4 -9.9 -9.999 -99.9 -99.99 -9.99
2020/02/20 19:48 EST    3.93   3.80 -999 -999 -999  32.9  40.8 1030.5 -9.9 -9.999 -99.9 -99.99 -9.99
2020/02/20 19:54 EST    3.85   3.73 -999 -999 -999  32.9  40.8 1030.5 -9.9 -9.999 -99.9 -99.99 -9.99
2020/02/20 20:00 EST    3.77   3.62 -999 -999 -999  32.7  40.8 1030.5 -9.9 -9.999 -99.9 -99.99 -9.99
2020/02/20 20:06 EST    3.68   3.51 -999 -999 -999  32.7  40.8 1030.5 -9.9 -9.999 -99.9 -99.99 -9.99
2020/02/20 20:12 EST    3.59   3.42 -999 -999 -999  32.5  40.8 1030.5 -9.9 -9.999 -99.9 -99.99 -9.99
2020/02/20 20:18 EST    3.50   3.33 -999 -999 -999  32.7  40.8 1030.4 -9.9 -9.999 -99.9 -99.99 -9.99
2020/02/20 20:24 EST    3.41   3.24 -999 -999 -999  32.5  40.8 1030.5 -9.9 -9.999 -99.9 -99.99 -9.99
2020/02/20 20:30 EST    3.31   3.13 -999 -999 -999  32.5  40.8 1030.6 -9.9 -9.999 -99.9 -99.99 -9.99
2020/02/20 20:36 EST    3.22   3.03 -999 -999 -999  32.5  40.8 1030.5 -9.9 -9.999 -99.9 -99.99 -9.99
2020/02/20 20:42 EST    3.12   2.90 -999 -999 -999  32.0  40.8 1030.5 -9.9 -9.999 -99.9 -99.99 -9.99
2020/02/20 20:48 EST    3.03   2.79 -999 -999 -999  32.2  40.8 1030.5 -9.9 -9.999 -99.9 -99.99 -9.99
2020/02/20 20:54 EST    2.93   2.66 -999 -999 -999  32.0  40.8 1030.6 -9.9 -9.999 -99.9 -99.99 -9.99
2020/02/20 21:00 EST    2.83   2.53 -999 -999 -999  31.8  40.8 1030.7 -9.9 -9.999 -99.9 -99.99 -9.99
2020/02/20 21:06 EST    2.74   2.42 -999 -999 -999  31.6  40.6 1030.8 -9.9 -9.999 -99.9 -99.99 -9.99
2020/02/20 21:12 EST    2.64   2.30 -999 -999 -999  31.5  40.6 1030.8 -9.9 -9.999 -99.9 -99.99 -9.99
2020/02/20 21:18 EST    2.54   2.17 -999 -999 -999  31.1  40.6 1030.9 -9.9 -9.999 -99.9 -99.99 -9.99
2020/02/20 21:24 EST    2.45   2.06 -999 -999 -999  31.3  40.6 1031.0 -9.9 -9.999 -99.9 -99.99 -9.99
2020/02/20 21:30 EST    2.35   1.92 -999 -999 -999  31.3  40.6 1031.0 -9.9 -9.999 -99.9 -99.99 -9.99
2020/02/20 21:36 EST    2.25   1.77 -999 -999 -999  30.7  40.6 1031.1 -9.9 -9.999 -99.9 -99.99 -9.99
2020/02/20 21:42 EST    2.16   1.64 -999 -999 -999  30.6  40.5 1031.2 -9.9 -9.999 -99.9 -99.99 -9.99
2020/02/20 21:48 EST    2.06   1.52 -999 -999 -999  30.6  40.5 1031.2 -9.9 -9.999 -99.9 -99.99 -9.99
2020/02/20 21:54 EST    1.96   1.38 -999 -999 -999  30.6  40.5 1031.3 -9.9 -9.999 -99.9 -99.99 -9.99
2020/02/20 22:00 EST    1.87   1.26 -999 -999 -999  30.2  40.5 1031.3 -9.9 -9.999 -99.9 -99.99 -9.99
2020/02/20 22:06 EST    1.77   1.12 -999 -999 -999  30.0  40.5 1031.3 -9.9 -9.999 -99.9 -99.99 -9.99
2020/02/20 22:12 EST    1.68   1.03 -999 -999 -999  30.0  40.5 1031.4 -9.9 -9.999 -99.9 -99.99 -9.99
2020/02/20 22:18 EST    1.58   0.92 -999 -999 -999  30.0  40.3 1031.3 -9.9 -9.999 -99.9 -99.99 -9.99
2020/02/20 22:24 EST    1.49   0.82 -999 -999 -999  29.3  40.3 1031.4 -9.9 -9.999 -99.9 -99.99 -9.99
2020/02/20 22:30 EST    1.40   0.69 -999 -999 -999  29.1  40.3 1031.4 -9.9 -9.999 -99.9 -99.99 -9.99
2020/02/20 22:36 EST    1.30   0.62 -999 -999 -999  29.1  40.3 1031.5 -9.9 -9.999 -99.9 -99.99 -9.99
2020/02/20 22:42 EST    1.21   0.53 -999 -999 -999  28.9  40.3 1031.5 -9.9 -9.999 -99.9 -99.99 -9.99
2020/02/20 22:48 EST    1.12   0.45 -999 -999 -999  28.4  40.3 1031.6 -9.9 -9.999 -99.9 -99.99 -9.99
2020/02/20 22:54 EST    1.03   0.39 -999 -999 -999  28.4  40.3 1031.5 -9.9 -9.999 -99.9 -99.99 -9.99
2020/02/20 23:00 EST    0.94   0.34 -999 -999 -999  28.0  40.3 1031.5 -9.9 -9.999 -99.9 -99.99 -9.99
2020/02/20 23:06 EST    0.85   0.29 -999 -999 -999  28.2  40.1 1031.6 -9.9 -9.999 -99.9 -99.99 -9.99
2020/02/20 23:12 EST    0.77   0.21 -999 -999 -999  27.7  40.1 1031.5 -9.9 -9.999 -99.9 -99.99 -9.99
2020/02/20 23:18 EST    0.69   0.18 -999 -999 -999  28.0  40.1 1031.6 -9.9 -9.999 -99.9 -99.99 -9.99
2020/02/20 23:24 EST    0.61   0.12 -999 -999 -999  27.5  40.1 1031.5 -9.9 -9.999 -99.9 -99.99 -9.99
2020/02/20 23:30 EST    0.53   0.08 -999 -999 -999  27.0  40.1 1031.5 -9.9 -9.999 -99.9 -99.99 -9.99
2020/02/20 23:36 EST    0.46   0.06 -999 -999 -999  27.0  40.1 1031.5 -9.9 -9.999 -99.9 -99.99 -9.99
2020/02/20 23:42 EST    0.39   0.01 -999 -999 -999  27.1  40.1 1031.5 -9.9 -9.999 -99.9 -99.99 -9.99
2020/02/20 23:48 EST    0.33  -0.03 -999 -999 -999  27.0  40.1 1031.6 -9.9 -9.999 -99.9 -99.99 -9.99
2020/02/20 23:54 EST    0.27  -0.05 -999 -999 -999  26.6  40.1 1031.7 -9.9 -9.999 -99.9 -99.99 -9.99
2020/02/21 00:00 EST    0.21  -0.06 -999 -999 -999  26.8  40.1 1031.6 -9.9 -9.999 -99.9 -99.99 -9.99
2020/02/21 00:06 EST    0.17  -0.08 -999 -999 -999  26.8  40.1 1031.7 -9.9 -9.999 -99.9 -99.99 -9.99
2020/02/21 00:12 EST    0.13  -0.11 -999 -999 -999  26.2  40.1 1031.8 -9.9 -9.999 -99.9 -99.99 -9.99
2020/02/21 00:18 EST    0.09  -0.12 -999 -999 -999  26.2  40.1 1031.7 -9.9 -9.999 -99.9 -99.99 -9.99
2020/02/21 00:24 EST    0.07  -0.13 -999 -999 -999  26.2  39.9 1031.7 -9.9 -9.999 -99.9 -99.99 -9.99
2020/02/21 00:30 EST    0.05  -0.13 -999 -999 -999  26.1  39.9 1031.7 -9.9 -9.999 -99.9 -99.99 -9.99
2020/02/21 00:36 EST    0.04  -0.13 -999 -999 -999  26.2  39.9 1031.7 -9.9 -9.999 -99.9 -99.99 -9.99
2020/02/21 00:42 EST    0.03  -0.11 -999 -999 -999  25.9  39.9 1031.8 -9.9 -9.999 -99.9 -99.99 -9.99
2020/02/21 00:48 EST    0.04  -0.08 -999 -999 -999  26.1  39.9 1031.7 -9.9 -9.999 -99.9 -99.99 -9.99
2020/02/21 00:54 EST    0.05  -0.07 -999 -999 -999  25.7  39.9 1031.6 -9.9 -9.999 -99.9 -99.99 -9.99
2020/02/21 01:00 EST    0.07  -0.04 -999 -999 -999  25.9  39.9 1031.7 -9.9 -9.999 -99.9 -99.99 -9.99
2020/02/21 01:06 EST    0.10   0.00 -999 -999 -999  25.3  39.9 1031.7 -9.9 -9.999 -99.9 -99.99 -9.99
2020/02/21 01:12 EST    0.14   0.03 -999 -999 -999  25.2  39.9 1031.8 -9.9 -9.999 -99.9 -99.99 -9.99
2020/02/21 01:18 EST    0.19   0.10 -999 -999 -999  25.2  39.9 1031.8 -9.9 -9.999 -99.9 -99.99 -9.99
2020/02/21 01:24 EST    0.25   0.15 -999 -999 -999  25.3  39.9 1031.8 -9.9 -9.999 -99.9 -99.99 -9.99
2020/02/21 01:30 EST    0.31   0.22 -999 -999 -999  25.0  39.7 1031.9 -9.9 -9.999 -99.9 -99.99 -9.99
2020/02/21 01:36 EST    0.38   0.31 -999 -999 -999  24.6  39.7 1031.9 -9.9 -9.999 -99.9 -99.99 -9.99
2020/02/21 01:42 EST    0.46   0.38 -999 -999 -999  24.8  39.7 1031.9 -9.9 -9.999 -99.9 -99.99 -9.99
2020/02/21 01:48 EST    0.55   0.49 -999 -999 -999  24.6  39.7 1031.9 -9.9 -9.999 -99.9 -99.99 -9.99
2020/02/21 01:54 EST    0.64   0.59 -999 -999 -999  25.0  39.7 1032.0 -9.9 -9.999 -99.9 -99.99 -9.99
2020/02/21 02:00 EST    0.74   0.70 -999 -999 -999  24.8  39.7 1032.0 -9.9 -9.999 -99.9 -99.99 -9.99
2020/02/21 02:06 EST    0.84   0.81 -999 -999 -999  24.6  39.7 1031.9 -9.9 -9.999 -99.9 -99.99 -9.99
2020/02/21 02:12 EST    0.95   0.94 -999 -999 -999  24.3  39.7 1031.9 -9.9 -9.999 -99.9 -99.99 -9.99
2020/02/21 02:18 EST    1.07   1.06 -999 -999 -999  24.3  39.7 1031.9 -9.9 -9.999 -99.9 -99.99 -9.99
2020/02/21 02:24 EST    1.19   1.19 -999 -999 -999  23.9  39.7 1031.8 -9.9 -9.999 -99.9 -99.99 -9.99
2020/02/21 02:30 EST    1.31   1.32 -999 -999 -999  24.3  39.7 1031.8 -9.9 -9.999 -99.9 -99.99 -9.99
2020/02/21 02:36 EST    1.43   1.44 -999 -999 -999  24.3  39.6 1031.7 -9.9 -9.999 -99.9 -99.99 -9.99
2020/02/21 02:42 EST    1.56   1.58 -999 -999 -999  23.9  39.6 1031.7 -9.9 -9.999 -99.9 -99.99 -9.99
2020/02/21 02:48 EST    1.69   1.71 -999 -999 -999  23.9  39.6 1031.7 -9.9 -9.999 -99.9 -99.99 -9.99
2020/02/21 02:54 EST    1.82   1.88 -999 -999 -999  23.9  39.6 1031.7 -9.9 -9.999 -99.9 -99.99 -9.99
2020/02/21 03:00 EST    1.95   2.02 -999 -999 -999  24.6  39.6 1031.6 -9.9 -9.999 -99.9 -99.99 -9.99
2020/02/21 03:06 EST    2.08   2.15 -999 -999 -999  24.3  39.6 1031.5 -9.9 -9.999 -99.9 -99.99 -9.99
2020/02/21 03:12 EST    2.22   2.29 -999 -999 -999  24.1  39.7 1031.5 -9.9 -9.999 -99.9 -99.99 -9.99
2020/02/21 03:18 EST    2.35   2.44 -999 -999 -999  24.1  39.7 1031.5 -9.9 -9.999 -99.9 -99.99 -9.99
2020/02/21 03:24 EST    2.48   2.55 -999 -999 -999  23.9  39.6 1031.5 -9.9 -9.999 -99.9 -99.99 -9.99
2020/02/21 03:30 EST    2.61   2.69 -999 -999 -999  23.7  39.6 1031.5 -9.9 -9.999 -99.9 -99.99 -9.99
2020/02/21 03:36 EST    2.74   2.83 -999 -999 -999  23.5  39.6 1031.5 -9.9 -9.999 -99.9 -99.99 -9.99
2020/02/21 03:42 EST    2.87   2.97 -999 -999 -999  23.9  39.6 1031.4 -9.9 -9.999 -99.9 -99.99 -9.99
2020/02/21 03:48 EST    3.00   3.08 -999 -999 -999  23.5  39.7 1031.4 -9.9 -9.999 -99.9 -99.99 -9.99
2020/02/21 03:54 EST    3.12   3.21 -999 -999 -999  23.5  39.7 1031.3 -9.9 -9.999 -99.9 -99.99 -9.99
2020/02/21 04:00 EST    3.25   3.34 -999 -999 -999  24.1  39.4 1031.3 -9.9 -9.999 -99.9 -99.99 -9.99
2020/02/21 04:06 EST    3.37   3.46 -999 -999 -999  23.4  39.4 1031.4 -9.9 -9.999 -99.9 -99.99 -9.99
2020/02/21 04:12 EST    3.48   3.57 -999 -999 -999  23.4  39.4 1031.3 -9.9 -9.999 -99.9 -99.99 -9.99
2020/02/21 04:18 EST    3.60   3.70 -999 -999 -999  23.0  39.4 1031.3 -9.9 -9.999 -99.9 -99.99 -9.99
2020/02/21 04:24 EST    3.71   3.79 -999 -999 -999  23.4  39.4 1031.4 -9.9 -9.999 -99.9 -99.99 -9.99
2020/02/21 04:30 EST    3.82   3.90 -999 -999 -999  23.2  39.4 1031.4 -9.9 -9.999 -99.9 -99.99 -9.99
2020/02/21 04:36 EST    3.93   3.99 -999 -999 -999  22.8  39.4 1031.4 -9.9 -9.999 -99.9 -99.99 -9.99
2020/02/21 04:42 EST    4.04   4.10 -999 -999 -999  23.2  39.6 1031.3 -9.9 -9.999 -99.9 -99.99 -9.99
2020/02/21 04:48 EST    4.14   4.20 -999 -999 -999  23.0  39.6 1031.4 -9.9 -9.999 -99.9 -99.99 -9.99
2020/02/21 04:54 EST    4.24   4.29 -999 -999 -999  23.5  39.7 1031.4 -9.9 -9.999 -99.9 -99.99 -9.99
2020/02/21 05:00 EST    4.34   4.37 -999 -999 -999  23.0  39.7 1031.3 -9.9 -9.999 -99.9 -99.99 -9.99
2020/02/21 05:06 EST    4.43   4.43 -999 -999 -999  23.2  39.9 1031.5 -9.9 -9.999 -99.9 -99.99 -9.99
2020/02/21 05:12 EST    4.52   4.50 -999 -999 -999  23.0  39.9 1031.7 -9.9 -9.999 -99.9 -99.99 -9.99
2020/02/21 05:18 EST    4.60   4.54 -999 -999 -999  23.0  40.1 1031.7 -9.9 -9.999 -99.9 -99.99 -9.99
2020/02/21 05:24 EST    4.69   4.61 -999 -999 -999  22.6  40.1 1031.8 -9.9 -9.999 -99.9 -99.99 -9.99
2020/02/21 05:30 EST    4.76   4.69 -999 -999 -999  22.8  40.1 1031.9 -9.9 -9.999 -99.9 -99.99 -9.99
2020/02/21 05:36 EST    4.84   4.74 -999 -999 -999  23.0  40.3 1031.9 -9.9 -9.999 -99.9 -99.99 -9.99
2020/02/21 05:42 EST    4.91   4.78 -999 -999 -999  22.5  40.3 1031.9 -9.9 -9.999 -99.9 -99.99 -9.99
2020/02/21 05:48 EST    4.97   4.81 -999 -999 -999  22.8  40.3 1031.9 -9.9 -9.999 -99.9 -99.99 -9.99
2020/02/21 05:54 EST    5.03   4.86 -999 -999 -999  22.3  40.3 1032.0 -9.9 -9.999 -99.9 -99.99 -9.99
2020/02/21 06:00 EST    5.08   4.91 -999 -999 -999  22.3  40.3 1032.0 -9.9 -9.999 -99.9 -99.99 -9.99
2020/02/21 06:06 EST    5.13   4.96 -999 -999 -999  22.3  40.1 1032.0 -9.9 -9.999 -99.9 -99.99 -9.99
2020/02/21 06:12 EST    5.17   4.98 -999 -999 -999  22.3  39.9 1032.1 -9.9 -9.999 -99.9 -99.99 -9.99
2020/02/21 06:18 EST    5.21   4.96 -999 -999 -999  22.1  39.9 1032.1 -9.9 -9.999 -99.9 -99.99 -9.99
2020/02/21 06:24 EST    5.24   4.97 -999 -999 -999  22.3  39.9 1032.2 -9.9 -9.999 -99.9 -99.99 -9.99
2020/02/21 06:30 EST    5.26   5.00 -999 -999 -999  21.9  39.9 1032.2 -9.9 -9.999 -99.9 -99.99 -9.99
2020/02/21 06:36 EST    5.28   5.02 -999 -999 -999  22.1  39.9 1032.2 -9.9 -9.999 -99.9 -99.99 -9.99
2020/02/21 06:42 EST    5.29   5.00 -999 -999 -999  22.3  39.9 1032.3 -9.9 -9.999 -99.9 -99.99 -9.99
2020/02/21 06:48 EST    5.29   5.00 -999 -999 -999  21.9  39.9 1032.4 -9.9 -9.999 -99.9 -99.99 -9.99
2020/02/21 06:54 EST    5.29   5.07 -999 -999 -999  22.1  39.9 1032.4 -9.9 -9.999 -99.9 -99.99 -9.99
2020/02/21 07:00 EST    5.28   5.08 -999 -999 -999  22.1  39.9 1032.4 -9.9 -9.999 -99.9 -99.99 -9.99
2020/02/21 07:06 EST    5.26   5.05 -999 -999 -999  22.3  39.9 1032.5 -9.9 -9.999 -99.9 -99.99 -9.99
2020/02/21 07:12 EST    5.23   5.03 -999 -999 -999  21.9  39.9 1032.6 -9.9 -9.999 -99.9 -99.99 -9.99
2020/02/21 07:18 EST    5.20   5.03 -999 -999 -999  21.9  39.9 1032.6 -9.9 -9.999 -99.9 -99.99 -9.99
2020/02/21 07:24 EST    5.16   5.03 -999 -999 -999  22.3  39.9 1032.8 -9.9 -9.999 -99.9 -99.99 -9.99
2020/02/21 07:30 EST    5.12   5.02 -999 -999 -999  21.9  39.7 1032.9 -9.9 -9.999 -99.9 -99.99 -9.99
2020/02/21 07:36 EST    5.06   4.99 -999 -999 -999  21.7  39.7 1033.0 -9.9 -9.999 -99.9 -99.99 -9.99
2020/02/21 07:42 EST    5.00   4.98 -999 -999 -999  22.1  39.7 1033.1 -9.9 -9.999 -99.9 -99.99 -9.99
2020/02/21 07:48 EST    4.94   4.93 -999 -999 -999  21.6  39.7 1033.2 -9.9 -9.999 -99.9 -99.99 -9.99
2020/02/21 07:54 EST    4.87   4.91 -999 -999 -999  21.9  39.7 1033.2 -9.9 -9.999 -99.9 -99.99 -9.99
2020/02/21 08:00 EST    4.79   4.85 -999 -999 -999  21.7  39.7 1033.2 -9.9 -9.999 -99.9 -99.99 -9.99
2020/02/21 08:06 EST    4.71   4.82 -999 -999 -999  22.1  39.7 1033.2 -9.9 -9.999 -99.9 -99.99 -9.99
2020/02/21 08:12 EST    4.63   4.77 -999 -999 -999  22.3  39.6 1033.2 -9.9 -9.999 -99.9 -99.99 -9.99
2020/02/21 08:18 EST    4.54   4.67 -999 -999 -999  22.1  39.6 1033.3 -9.9 -9.999 -99.9 -99.99 -9.99
2020/02/21 08:24 EST    4.44   4.60 -999 -999 -999  22.3  39.6 1033.3 -9.9 -9.999 -99.9 -99.99 -9.99
2020/02/21 08:30 EST    4.35   4.54 -999 -999 -999  22.8  39.6 1033.4 -9.9 -9.999 -99.9 -99.99 -9.99
2020/02/21 08:36 EST    4.25   4.44 -999 -999 -999  22.6  39.6 1033.4 -9.9 -9.999 -99.9 -99.99 -9.99
2020/02/21 08:42 EST    4.14   4.33 -999 -999 -999  22.6  39.6 1033.4 -9.9 -9.999 -99.9 -99.99 -9.99
2020/02/21 08:48 EST    4.04   4.26 -999 -999 -999  22.6  39.6 1033.5 -9.9 -9.999 -99.9 -99.99 -9.99
2020/02/21 08:54 EST    3.93   4.16 -999 -999 -999  22.8  39.6 1033.5 -9.9 -9.999 -99.9 -99.99 -9.99
2020/02/21 09:00 EST    3.82   4.04 -999 -999 -999  23.2  39.6 1033.5 -9.9 -9.999 -99.9 -99.99 -9.99
2020/02/21 09:06 EST    3.71   3.93 -999 -999 -999  23.2  39.6 1033.5 -9.9 -9.999 -99.9 -99.99 -9.99
2020/02/21 09:12 EST    3.60   3.79 -999 -999 -999  23.2  39.4 1033.5 -9.9 -9.999 -99.9 -99.99 -9.99
2020/02/21 09:18 EST    3.48   3.74 -999 -999 -999  23.4  39.4 1033.6 -9.9 -9.999 -99.9 -99.99 -9.99
2020/02/21 09:24 EST    3.37   3.61 -999 -999 -999  23.4  39.4 1033.7 -9.9 -9.999 -99.9 -99.99 -9.99
2020/02/21 09:30 EST    3.25   3.49 -999 -999 -999  23.4  39.4 1033.8 -9.9 -9.999 -99.9 -99.99 -9.99
2020/02/21 09:36 EST    3.14   3.38 -999 -999 -999  24.1  39.4 1033.8 -9.9 -9.999 -99.9 -99.99 -9.99
2020/02/21 09:42 EST    3.02   3.26 -999 -999 -999  23.9  39.4 1033.8 -9.9 -9.999 -99.9 -99.99 -9.99
2020/02/21 09:48 EST    2.91   3.14 -999 -999 -999  23.5  39.2 1033.8 -9.9 -9.999 -99.9 -99.99 -9.99
2020/02/21 09:54 EST    2.79   3.01 -999 -999 -999  23.9  39.2 1033.7 -9.9 -9.999 -99.9 -99.99 -9.99
2020/02/21 10:00 EST    2.67   2.88 -999 -999 -999  24.4  39.2 1033.7 -9.9 -9.999 -99.9 -99.99 -9.99
2020/02/21 10:06 EST    2.56   2.73 -999 -999 -999  24.1  39.2 1033.7 -9.9 -9.999 -99.9 -99.99 -9.99
2020/02/21 10:12 EST    2.44   2.59 -999 -999 -999  24.6  39.2 1033.8 -9.9 -9.999 -99.9 -99.99 -9.99
2020/02/21 10:18 EST    2.32   2.41 -999 -999 -999  25.0  39.2 1033.7 -9.9 -9.999 -99.9 -99.99 -9.99
2020/02/21 10:24 EST    2.21   2.27 -999 -999 -999  25.0  39.2 1033.6 -9.9 -9.999 -99.9 -99.99 -9.99
2020/02/21 10:30 EST    2.09   2.14 -999 -999 -999  25.3  39.2 1033.7 -9.9 -9.999 -99.9 -99.99 -9.99
2020/02/21 10:36 EST    1.97   1.98 -999 -999 -999  25.5  39.2 1033.6 -9.9 -9.999 -99.9 -99.99 -9.99
2020/02/21 10:42 EST    1.86   1.81 -999 -999 -999  25.3  39.2 1033.7 -9.9 -9.999 -99.9 -99.99 -9.99
2020/02/21 10:48 EST    1.74   1.68 -999 -999 -999  26.1  39.2 1033.6 -9.9 -9.999 -99.9 -99.99 -9.99
2020/02/21 10:54 EST    1.62   1.54 -999 -999 -999  25.9  39.2 1033.7 -9.9 -9.999 -99.9 -99.99 -9.99
2020/02/21 11:00 EST    1.51   1.39 -999 -999 -999  26.6  39.2 1033.6 -9.9 -9.999 -99.9 -99.99 -9.99
2020/02/21 11:06 EST    1.39   1.27 -999 -999 -999  26.8  39.4 1033.6 -9.9 -9.999 -99.9 -99.99 -9.99
2020/02/21 11:12 EST    1.28   1.13 -999 -999 -999  26.4  39.4 1033.5 -9.9 -9.999 -99.9 -99.99 -9.99
2020/02/21 11:18 EST    1.16 -99.99 -999 -999 -999 -99.9 -99.9 -999.9 -9.9 -9.999 -99.9 -99.99 -9.99
2020/02/21 11:24 EST    1.05 -99.99 -999 -999 -999 -99.9 -99.9 -999.9 -9.9 -9.999 -99.9 -99.99 -9.99
2020/02/21 11:30 EST    0.94 -99.99 -999 -999 -999 -99.9 -99.9 -999.9 -9.9 -9.999 -99.9 -99.99 -9.99
2020/02/21 11:36 EST    0.83 -99.99 -999 -999 -999 -99.9 -99.9 -999.9 -9.9 -9.999 -99.9 -99.99 -9.99
2020/02/21 11:42 EST    0.73 -99.99 -999 -999 -999 -99.9 -99.9 -999.9 -9.9 -9.999 -99.9 -99.99 -9.99
2020/02/21 11:48 EST    0.63 -99.99 -999 -999 -999 -99.9 -99.9 -999.9 -9.9 -9.999 -99.9 -99.99 -9.99
2020/02/21 11:54 EST    0.53 -99.99 -999 -999 -999 -99.9 -99.9 -999.9 -9.9 -9.999 -99.9 -99.99 -9.99
2020/02/21 12:00 EST    0.43 -99.99 -999 -999 -999 -99.9 -99.9 -999.9 -9.9 -9.999 -99.9 -99.99 -9.99
2020/02/21 12:06 EST    0.34 -99.99 -999 -999 -999 -99.9 -99.9 -999.9 -9.9 -9.999 -99.9 -99.99 -9.99
2020/02/21 12:12 EST    0.25 -99.99 -999 -999 -999 -99.9 -99.9 -999.9 -9.9 -9.999 -99.9 -99.99 -9.99
2020/02/21 12:18 EST    0.17 -99.99 -999 -999 -999 -99.9 -99.9 -999.9 -9.9 -9.999 -99.9 -99.99 -9.99
2020/02/21 12:24 EST    0.09 -99.99 -999 -999 -999 -99.9 -99.9 -999.9 -9.9 -9.999 -99.9 -99.99 -9.99
2020/02/21 12:30 EST    0.02 -99.99 -999 -999 -999 -99.9 -99.9 -999.9 -9.9 -9.999 -99.9 -99.99 -9.99
2020/02/21 12:36 EST   -0.04 -99.99 -999 -999 -999 -99.9 -99.9 -999.9 -9.9 -9.999 -99.9 -99.99 -9.99
2020/02/21 12:42 EST   -0.10 -99.99 -999 -999 -999 -99.9 -99.9 -999.9 -9.9 -9.999 -99.9 -99.99 -9.99
2020/02/21 12:48 EST   -0.14 -99.99 -999 -999 -999 -99.9 -99.9 -999.9 -9.9 -9.999 -99.9 -99.99 -9.99
2020/02/21 12:54 EST   -0.18 -99.99 -999 -999 -999 -99.9 -99.9 -999.9 -9.9 -9.999 -99.9 -99.99 -9.99
2020/02/21 13:00 EST   -0.22 -99.99 -999 -999 -999 -99.9 -99.9 -999.9 -9.9 -9.999 -99.9 -99.99 -9.99
2020/02/21 13:06 EST   -0.24 -99.99 -999 -999 -999 -99.9 -99.9 -999.9 -9.9 -9.999 -99.9 -99.99 -9.99
2020/02/21 13:12 EST   -0.26 -99.99 -999 -999 -999 -99.9 -99.9 -999.9 -9.9 -9.999 -99.9 -99.99 -9.99
2020/02/21 13:18 EST   -0.26 -99.99 -999 -999 -999 -99.9 -99.9 -999.9 -9.9 -9.999 -99.9 -99.99 -9.99
2020/02/21 13:24 EST   -0.26 -99.99 -999 -999 -999 -99.9 -99.9 -999.9 -9.9 -9.999 -99.9 -99.99 -9.99
2020/02/21 13:30 EST   -0.25 -99.99 -999 -999 -999 -99.9 -99.9 -999.9 -9.9 -9.999 -99.9 -99.99 -9.99
2020/02/21 13:36 EST   -0.22 -99.99 -999 -999 -999 -99.9 -99.9 -999.9 -9.9 -9.999 -99.9 -99.99 -9.99
2020/02/21 13:42 EST   -0.19 -99.99 -999 -999 -999 -99.9 -99.9 -999.9 -9.9 -9.999 -99.9 -99.99 -9.99
2020/02/21 13:48 EST   -0.15 -99.99 -999 -999 -999 -99.9 -99.9 -999.9 -9.9 -9.999 -99.9 -99.99 -9.99
2020/02/21 13:54 EST   -0.11 -99.99 -999 -999 -999 -99.9 -99.9 -999.9 -9.9 -9.999 -99.9 -99.99 -9.99
2020/02/21 14:00 EST   -0.05 -99.99 -999 -999 -999 -99.9 -99.9 -999.9 -9.9 -9.999 -99.9 -99.99 -9.99
2020/02/21 14:06 EST    0.02 -99.99 -999 -999 -999 -99.9 -99.9 -999.9 -9.9 -9.999 -99.9 -99.99 -9.99
2020/02/21 14:12 EST    0.09 -99.99 -999 -999 -999 -99.9 -99.9 -999.9 -9.9 -9.999 -99.9 -99.99 -9.99
2020/02/21 14:18 EST    0.17 -99.99 -999 -999 -999 -99.9 -99.9 -999.9 -9.9 -9.999 -99.9 -99.99 -9.99
2020/02/21 14:24 EST    0.25 -99.99 -999 -999 -999 -99.9 -99.9 -999.9 -9.9 -9.999 -99.9 -99.99 -9.99
2020/02/21 14:30 EST    0.35 -99.99 -999 -999 -999 -99.9 -99.9 -999.9 -9.9 -9.999 -99.9 -99.99 -9.99
2020/02/21 14:36 EST    0.45 -99.99 -999 -999 -999 -99.9 -99.9 -999.9 -9.9 -9.999 -99.9 -99.99 -9.99
2020/02/21 14:42 EST    0.55 -99.99 -999 -999 -999 -99.9 -99.9 -999.9 -9.9 -9.999 -99.9 -99.99 -9.99
2020/02/21 14:48 EST    0.66 -99.99 -999 -999 -999 -99.9 -99.9 -999.9 -9.9 -9.999 -99.9 -99.99 -9.99
2020/02/21 14:54 EST    0.78 -99.99 -999 -999 -999 -99.9 -99.9 -999.9 -9.9 -9.999 -99.9 -99.99 -9.99
2020/02/21 15:00 EST    0.89 -99.99 -999 -999 -999 -99.9 -99.9 -999.9 -9.9 -9.999 -99.9 -99.99 -9.99
2020/02/21 15:06 EST    1.02 -99.99 -999 -999 -999 -99.9 -99.9 -999.9 -9.9 -9.999 -99.9 -99.99 -9.99
2020/02/21 15:12 EST    1.14 -99.99 -999 -999 -999 -99.9 -99.9 -999.9 -9.9 -9.999 -99.9 -99.99 -9.99
2020/02/21 15:18 EST    1.26 -99.99 -999 -999 -999 -99.9 -99.9 -999.9 -9.9 -9.999 -99.9 -99.99 -9.99
2020/02/21 15:24 EST    1.39 -99.99 -999 -999 -999 -99.9 -99.9 -999.9 -9.9 -9.999 -99.9 -99.99 -9.99
2020/02/21 15:30 EST    1.52 -99.99 -999 -999 -999 -99.9 -99.9 -999.9 -9.9 -9.999 -99.9 -99.99 -9.99
2020/02/21 15:36 EST    1.65 -99.99 -999 -999 -999 -99.9 -99.9 -999.9 -9.9 -9.999 -99.9 -99.99 -9.99
2020/02/21 15:42 EST    1.78 -99.99 -999 -999 -999 -99.9 -99.9 -999.9 -9.9 -9.999 -99.9 -99.99 -9.99
2020/02/21 15:48 EST    1.91 -99.99 -999 -999 -999 -99.9 -99.9 -999.9 -9.9 -9.999 -99.9 -99.99 -9.99
2020/02/21 15:54 EST    2.04 -99.99 -999 -999 -999 -99.9 -99.9 -999.9 -9.9 -9.999 -99.9 -99.99 -9.99
2020/02/21 16:00 EST    2.17 -99.99 -999 -999 -999 -99.9 -99.9 -999.9 -9.9 -9.999 -99.9 -99.99 -9.99
2020/02/21 16:06 EST    2.30 -99.99 -999 -999 -999 -99.9 -99.9 -999.9 -9.9 -9.999 -99.9 -99.99 -9.99
2020/02/21 16:12 EST    2.42 -99.99 -999 -999 -999 -99.9 -99.9 -999.9 -9.9 -9.999 -99.9 -99.99 -9.99
2020/02/21 16:18 EST    2.55 -99.99 -999 -999 -999 -99.9 -99.9 -999.9 -9.9 -9.999 -99.9 -99.99 -9.99
2020/02/21 16:24 EST    2.67 -99.99 -999 -999 -999 -99.9 -99.9 -999.9 -9.9 -9.999 -99.9 -99.99 -9.99
2020/02/21 16:30 EST    2.79 -99.99 -999 -999 -999 -99.9 -99.9 -999.9 -9.9 -9.999 -99.9 -99.99 -9.99
2020/02/21 16:36 EST    2.91 -99.99 -999 -999 -999 -99.9 -99.9 -999.9 -9.9 -9.999 -99.9 -99.99 -9.99
2020/02/21 16:42 EST    3.03 -99.99 -999 -999 -999 -99.9 -99.9 -999.9 -9.9 -9.999 -99.9 -99.99 -9.99
2020/02/21 16:48 EST    3.14 -99.99 -999 -999 -999 -99.9 -99.9 -999.9 -9.9 -9.999 -99.9 -99.99 -9.99
2020/02/21 16:54 EST    3.26 -99.99 -999 -999 -999 -99.9 -99.9 -999.9 -9.9 -9.999 -99.9 -99.99 -9.99
2020/02/21 17:00 EST    3.36 -99.99 -999 -999 -999 -99.9 -99.9 -999.9 -9.9 -9.999 -99.9 -99.99 -9.99
2020/02/21 17:06 EST    3.47 -99.99 -999 -999 -999 -99.9 -99.9 -999.9 -9.9 -9.999 -99.9 -99.99 -9.99
2020/02/21 17:12 EST    3.57 -99.99 -999 -999 -999 -99.9 -99.9 -999.9 -9.9 -9.999 -99.9 -99.99 -9.99
2020/02/21 17:18 EST    3.68 -99.99 -999 -999 -999 -99.9 -99.9 -999.9 -9.9 -9.999 -99.9 -99.99 -9.99